Time;durP1;ratioP1;P1;durP2;ratioP2;P2;SDS_P1;SDS_P2;PMS_P1;PMS_P2;Temp;Humidity;BMP_temperature;BMP_pressure;BME280_temperature;BME280_humidity;BME280_pressure;Samples;Min_cycle;Max_cycle;Signal;HPM_P1;HPM_P2
2022/09/04 00:00:48;;;;;;;12.87;10.23;;;;;;;-143.84;84.15;45130.94;5088404;28;20531;-69
2022/09/04 00:03:30;;;;;;;11.67;10.47;;;;;;;-143.84;84.12;45148.09;5088229;28;20928;-69
2022/09/04 00:06:04;;;;;;;13.73;10.47;;;;;;;-143.84;84.43;45150.00;5092158;28;20528;-69
2022/09/04 00:09:03;;;;;;;13.70;9.97;;;;;;;-143.84;84.78;45188.06;5091836;28;20534;-69
2022/09/04 00:11:43;;;;;;;12.47;11.03;;;;;;;-143.84;84.99;45165.22;5092098;28;20439;-69
2022/09/04 00:14:16;;;;;;;12.80;10.97;;;;;;;-143.84;85.06;45155.69;5091712;28;20481;-69
2022/09/04 00:16:51;;;;;;;14.00;12.33;;;;;;;-143.84;84.71;45174.75;5091782;28;20631;-69
2022/09/04 00:19:28;;;;;;;13.93;10.67;;;;;;;-143.84;85.06;45148.09;5091646;28;20983;-68
2022/09/04 00:21:59;;;;;;;12.37;11.20;;;;;;;-143.84;85.15;45167.13;5091672;28;20441;-69
2022/09/04 00:24:31;;;;;;;15.53;11.37;;;;;;;-143.84;85.45;45157.59;5091599;28;20566;-69
2022/09/04 00:27:05;;;;;;;15.90;10.60;;;;;;;-143.84;85.54;45174.75;5091849;28;20470;-69
2022/09/04 00:29:43;;;;;;;12.90;10.60;;;;;;;-143.84;85.69;45148.09;5091500;28;20442;-69
2022/09/04 00:32:20;;;;;;;12.87;11.47;;;;;;;-143.84;85.82;45159.50;5091248;28;20445;-69
2022/09/04 00:34:59;;;;;;;16.20;12.87;;;;;;;-143.84;86.01;45148.09;5091395;28;20434;-69
2022/09/04 00:37:32;;;;;;;14.27;12.77;;;;;;;-143.84;86.00;45148.09;5091298;28;20503;-69
2022/09/04 00:40:04;;;;;;;14.20;12.70;;;;;;;-143.84;85.94;45188.06;5091202;28;21092;-69
2022/09/04 00:43:05;;;;;;;14.93;13.33;;;;;;;-143.84;86.17;45146.19;5091292;28;20443;-69
2022/09/04 00:46:01;;;;;;;16.00;14.10;;;;;;;-143.84;86.45;45170.94;5091217;28;20672;-69
2022/09/04 00:49:08;;;;;;;18.77;13.13;;;;;;;-143.84;86.72;45167.13;5091113;28;20434;-69
2022/09/04 00:51:45;;;;;;;16.90;12.10;;;;;;;-143.84;86.91;45167.13;5090696;28;20511;-69
2022/09/04 00:54:29;;;;;;;14.07;12.60;;;;;;;-143.84;87.33;45153.81;5090878;28;20494;-69
2022/09/04 00:57:29;;;;;;;16.27;13.80;;;;;;;-143.84;87.19;45157.59;5090955;28;20500;-69
2022/09/04 01:00:08;;;;;;;16.60;14.87;;;;;;;-143.84;87.54;45153.81;5073135;28;20472;-69
2022/09/04 01:02:51;;;;;;;17.50;15.07;;;;;;;-143.84;87.45;45148.09;5090961;28;21315;-69
2022/09/04 01:05:35;;;;;;;17.10;14.73;;;;;;;-143.84;87.62;45134.75;5090677;28;20497;-69
2022/09/04 01:08:09;;;;;;;14.80;13.30;;;;;;;-143.84;87.55;45153.81;5090627;28;20996;-69
2022/09/04 01:10:45;;;;;;;15.60;14.00;;;;;;;-143.84;87.30;45186.16;5090610;28;20450;-69
2022/09/04 01:13:24;;;;;;;14.63;13.27;;;;;;;-143.84;87.30;45174.75;5090589;28;20514;-69
2022/09/04 01:15:58;;;;;;;16.43;13.20;;;;;;;-143.84;87.42;45151.91;5089291;28;20436;-69
2022/09/04 01:18:33;;;;;;;14.30;13.00;;;;;;;-143.84;87.42;45188.06;5090678;28;20566;-69
2022/09/04 01:21:42;;;;;;;17.50;14.90;;;;;;;-143.84;87.54;45150.00;5090458;28;20446;-69
2022/09/04 01:24:22;;;;;;;18.77;15.10;;;;;;;-143.84;87.73;45157.59;5075641;28;20877;-69
2022/09/04 01:26:59;;;;;;;19.20;15.50;;;;;;;-143.84;87.81;45167.13;5090507;28;20431;-69
2022/09/04 01:29:36;;;;;;;16.50;14.80;;;;;;;-143.84;87.79;45174.75;5090395;28;20530;-69
2022/09/04 01:32:10;;;;;;;16.13;14.53;;;;;;;-143.84;87.94;45163.31;5090221;28;20963;-69
2022/09/04 01:34:45;;;;;;;16.77;14.97;;;;;;;-143.84;87.96;45174.75;5090160;28;20476;-69
2022/09/04 01:37:35;;;;;;;16.23;14.60;;;;;;;-143.84;87.82;45169.03;5090167;28;20429;-69
2022/09/04 01:40:26;;;;;;;15.47;14.03;;;;;;;-143.84;87.90;45159.50;5090563;28;20504;-69
2022/09/04 01:43:01;;;;;;;16.50;14.80;;;;;;;-143.84;87.47;45180.47;5090027;28;20443;-69
2022/09/04 01:45:42;;;;;;;16.67;14.90;;;;;;;-143.84;87.49;45151.91;5087518;28;20459;-69
2022/09/04 01:48:14;;;;;;;18.33;16.43;;;;;;;-143.84;87.86;45189.97;5069760;28;20519;-69
2022/09/04 01:50:46;;;;;;;27.90;15.23;;;;;;;-143.84;87.59;45138.56;5069486;28;20514;-69
2022/09/04 01:53:19;;;;;;;16.00;14.33;;;;;;;-143.84;87.73;45180.47;5068491;28;21004;-69
2022/09/04 01:55:57;;;;;;;15.67;14.17;;;;;;;-143.84;87.85;45182.38;5068642;28;20433;-69
2022/09/04 01:58:35;;;;;;;24.67;14.93;;;;;;;-143.84;87.86;45186.16;5069255;28;20447;-69
2022/09/04 02:01:12;;;;;;;16.97;14.50;;;;;;;-143.84;87.83;45172.84;5069065;28;20441;-69
2022/09/04 02:03:47;;;;;;;17.30;15.53;;;;;;;-143.84;88.04;45170.94;5068659;28;20443;-69
2022/09/04 02:06:26;;;;;;;19.83;15.07;;;;;;;-143.84;88.27;45150.00;5069113;28;20452;-69
2022/09/04 02:09:17;;;;;;;16.83;15.03;;;;;;;-143.84;88.50;45178.56;5069428;28;21236;-69
2022/09/04 02:11:50;;;;;;;18.00;15.30;;;;;;;-143.84;88.62;45186.16;5069325;28;20433;-69
2022/09/04 02:14:34;;;;;;;17.77;16.17;;;;;;;-143.84;88.87;45184.25;5069079;28;20480;-69
2022/09/04 02:17:09;;;;;;;20.27;16.10;;;;;;;-143.84;89.04;45189.97;5069337;28;20449;-68
2022/09/04 02:19:57;;;;;;;21.17;17.23;;;;;;;-143.84;89.01;45184.25;5069381;28;20438;-69
2022/09/04 02:22:32;;;;;;;19.03;15.63;;;;;;;-143.84;89.07;45146.19;5069296;28;20442;-69
2022/09/04 02:25:11;;;;;;;24.90;15.90;;;;;;;-143.84;89.07;45167.13;5069514;28;20436;-69
2022/09/04 02:27:49;;;;;;;18.57;16.60;;;;;;;-143.84;89.18;45188.06;5068776;28;20441;-69
2022/09/04 02:30:20;;;;;;;17.90;16.00;;;;;;;-143.84;88.96;45174.75;5069117;28;20439;-69
2022/09/04 02:32:55;;;;;;;18.53;16.07;;;;;;;-143.84;89.04;45155.69;5068894;28;20506;-69
2022/09/04 02:35:29;;;;;;;19.80;16.43;;;;;;;-143.84;89.06;45188.06;5068865;28;20511;-69
2022/09/04 02:38:10;;;;;;;18.50;15.53;;;;;;;-143.84;89.21;45170.94;5069184;28;20820;-69
2022/09/04 02:40:50;;;;;;;18.93;15.63;;;;;;;-143.84;89.20;45186.16;5068970;28;20508;-69
2022/09/04 02:43:38;;;;;;;18.40;16.40;;;;;;;-143.84;89.09;45172.84;5068914;28;20445;-69
2022/09/04 02:46:16;;;;;;;19.30;16.07;;;;;;;-143.84;88.95;45155.69;5069129;28;20456;-69
2022/09/04 02:48:56;;;;;;;17.93;16.13;;;;;;;-143.84;89.27;45186.16;5068766;28;20510;-69
2022/09/04 02:51:41;;;;;;;18.67;16.80;;;;;;;-143.84;89.27;45161.41;5068965;28;20459;-69
2022/09/04 02:54:16;;;;;;;16.90;14.77;;;;;;;-143.84;89.25;45163.31;5068444;28;20543;-69
2022/09/04 02:56:57;;;;;;;17.90;16.03;;;;;;;-143.84;89.30;45186.16;5069035;28;20815;-69
2022/09/04 02:59:36;;;;;;;19.70;17.50;;;;;;;-143.84;89.34;45138.56;5068930;28;20517;-69
2022/09/04 03:02:08;;;;;;;18.23;15.90;;;;;;;-143.84;89.34;45150.00;5068699;28;20460;-69
2022/09/04 03:04:48;;;;;;;18.07;16.20;;;;;;;-143.84;89.50;45176.66;5068801;28;20872;-69
2022/09/04 03:07:24;;;;;;;19.93;15.30;;;;;;;-143.84;89.25;45174.75;5068847;28;20869;-69
2022/09/04 03:09:59;;;;;;;23.90;15.73;;;;;;;-143.84;88.84;45169.03;5068665;28;20434;-69
2022/09/04 03:12:33;;;;;;;30.77;16.10;;;;;;;-143.84;88.39;45186.16;5068719;28;20520;-69
2022/09/04 03:15:08;;;;;;;17.70;15.90;;;;;;;-143.84;88.43;45146.19;5068860;28;20480;-69
2022/09/04 03:17:45;;;;;;;20.60;15.90;;;;;;;-143.84;88.34;45148.09;5068616;28;20810;-69
2022/09/04 03:20:21;;;;;;;15.00;13.27;;;;;;;-143.84;87.90;45165.22;5068692;28;20452;-69
2022/09/04 03:22:55;;;;;;;17.10;14.43;;;;;;;-143.84;87.84;45167.13;5068424;28;20510;-69
2022/09/04 03:25:55;;;;;;;15.77;14.23;;;;;;;-143.84;87.24;45170.94;5068381;28;20453;-69
2022/09/04 03:28:31;;;;;;;16.30;13.07;;;;;;;-143.84;86.49;45174.75;5068528;28;20446;-70
2022/09/04 03:31:04;;;;;;;14.60;13.10;;;;;;;-143.84;86.37;45170.94;5068477;28;20536;-69
2022/09/04 03:33:38;;;;;;;17.73;14.30;;;;;;;-143.84;86.19;45176.66;5068335;28;20478;-69
2022/09/04 03:36:16;;;;;;;14.80;12.80;;;;;;;-143.84;85.87;45172.84;5068330;28;20460;-70
2022/09/04 03:38:56;;;;;;;15.60;14.00;;;;;;;-143.84;85.86;45170.94;5069042;28;20440;-69
2022/09/04 03:41:33;;;;;;;14.40;13.00;;;;;;;-143.84;85.85;45159.50;5072232;28;20519;-69
2022/09/04 03:44:12;;;;;;;16.30;13.70;;;;;;;-143.84;85.67;45167.13;5071617;28;20444;-69
2022/09/04 03:46:56;;;;;;;14.60;13.20;;;;;;;-143.84;85.64;45178.56;5090628;28;20449;-67
2022/09/04 03:49:41;;;;;;;15.20;13.70;;;;;;;-143.84;85.84;45140.47;5084881;28;20432;-68
2022/09/04 03:52:16;;;;;;;16.47;14.07;;;;;;;-143.84;86.03;45170.94;5071543;28;20465;-69
2022/09/04 03:55:02;;;;;;;17.50;15.10;;;;;;;-143.84;86.33;45157.59;5071664;28;20481;-68
2022/09/04 03:57:45;;;;;;;21.80;14.87;;;;;;;-143.84;86.24;45163.31;5071807;28;20448;-69
2022/09/04 04:00:17;;;;;;;15.63;14.03;;;;;;;-143.84;86.25;45203.31;5071821;28;20434;-69
2022/09/04 04:03:06;;;;;;;14.97;13.47;;;;;;;-143.84;86.01;45186.16;5071721;28;20495;-69
2022/09/04 04:05:44;;;;;;;17.43;13.90;;;;;;;-143.84;85.68;45170.94;5071966;28;20514;-68
2022/09/04 04:08:41;;;;;;;17.50;14.30;;;;;;;-143.84;85.73;45174.75;5071611;28;20537;-68
2022/09/04 04:11:24;;;;;;;24.23;14.73;;;;;;;-143.84;85.86;45178.56;5071686;28;20496;-68
2022/09/04 04:14:15;;;;;;;15.53;14.03;;;;;;;-143.84;85.86;45170.94;5071590;28;20561;-68
2022/09/04 04:16:55;;;;;;;14.90;13.40;;;;;;;-143.84;85.43;45176.66;5071308;28;20938;-68
2022/09/04 04:19:34;;;;;;;15.90;12.43;;;;;;;-143.84;85.03;45174.75;5071416;28;20454;-68
2022/09/04 04:22:25;;;;;;;15.10;12.73;;;;;;;-143.84;84.85;45170.94;5071593;28;20438;-68
2022/09/04 04:25:15;;;;;;;17.77;13.40;;;;;;;-143.84;84.74;45163.31;5071406;28;20986;-68
2022/09/04 04:28:03;;;;;;;19.43;12.83;;;;;;;-143.84;84.43;45178.56;5071535;28;20503;-68
2022/09/04 04:30:43;;;;;;;14.10;12.63;;;;;;;-143.84;84.26;45172.84;5071381;28;20440;-68
2022/09/04 04:33:41;;;;;;;15.63;12.17;;;;;;;-143.84;83.86;45167.13;5071353;28;20428;-68
2022/09/04 04:36:16;;;;;;;12.90;11.50;;;;;;;-143.84;83.26;45169.03;5071523;28;20436;-68
2022/09/04 04:39:14;;;;;;;14.10;11.73;;;;;;;-143.84;82.43;45180.47;5071154;28;20448;-68
2022/09/04 04:42:09;;;;;;;13.70;12.00;;;;;;;-143.84;82.70;45174.75;5071323;28;21397;-68
2022/09/04 04:48:13;;;;;;;11.50;9.07;;;;;;;-143.84;80.22;45157.59;5071033;28;20445;-68
2022/09/04 04:50:50;;;;;;;12.97;10.60;;;;;;;-143.84;78.32;45138.56;5070489;28;20475;-68
2022/09/04 04:53:25;;;;;;;13.13;9.50;;;;;;;-143.84;76.79;45151.91;5070949;28;20541;-68
2022/09/04 04:56:03;;;;;;;10.77;9.20;;;;;;;-143.84;74.99;45134.75;5070946;28;20921;-68
2022/09/04 04:58:45;;;;;;;17.00;7.90;;;;;;;-143.84;73.39;45138.56;5070863;28;21194;-68
2022/09/04 05:01:25;;;;;;;9.40;8.60;;;;;;;-143.84;71.53;45140.47;5070818;28;20807;-69
2022/09/04 05:04:05;;;;;;;8.00;7.30;;;;;;;-143.84;69.12;45161.41;5070568;28;20460;-69
2022/09/04 05:06:40;;;;;;;8.43;7.73;;;;;;;-143.84;67.72;45136.66;5070862;28;20545;-69
2022/09/04 05:09:15;;;;;;;7.70;6.93;;;;;;;-143.84;65.50;45138.56;5070363;28;20498;-69
2022/09/04 05:11:52;;;;;;;6.77;6.17;;;;;;;-143.84;62.84;45129.03;5070845;28;20440;-69
2022/09/04 05:14:32;;;;;;;6.53;5.93;;;;;;;-143.84;60.95;45129.03;5070137;28;20985;-69
2022/09/04 05:17:12;;;;;;;6.97;6.30;;;;;;;-143.84;60.04;45148.09;5070323;28;20445;-69
2022/09/04 05:19:47;;;;;;;9.67;5.70;;;;;;;-143.84;58.59;45096.66;5070312;28;20436;-68
2022/09/04 05:22:23;;;;;;;7.53;6.03;;;;;;;-143.84;57.42;45123.34;5070591;28;20506;-68
2022/09/04 05:25:02;;;;;;;6.30;5.70;;;;;;;-143.84;57.11;45130.94;5070281;28;20459;-69
2022/09/04 05:27:41;;;;;;;6.27;5.63;;;;;;;-143.84;56.41;45102.38;5070320;28;20497;-69
2022/09/04 05:30:14;;;;;;;5.50;5.13;;;;;;;-143.84;55.30;45117.63;5071808;28;20440;-76
2022/09/04 05:32:51;;;;;;;5.60;5.10;;;;;;;-143.84;53.98;45096.66;5072526;28;20441;-77
2022/09/04 05:35:26;;;;;;;6.60;6.07;;;;;;;-143.84;53.52;45115.72;5072261;28;20499;-77
2022/09/04 05:38:02;;;;;;;6.17;5.63;;;;;;;-143.84;52.18;45085.25;5072283;28;20580;-77
2022/09/04 05:40:39;;;;;;;7.10;5.53;;;;;;;-143.84;51.75;45079.53;5072154;28;20440;-77
2022/09/04 05:43:22;;;;;;;9.10;6.00;;;;;;;-143.84;50.38;45106.19;5071949;28;20432;-76
2022/09/04 05:45:59;;;;;;;6.00;5.50;;;;;;;-143.84;49.48;45102.38;5071120;28;20456;-76
2022/09/04 05:48:33;;;;;;;6.00;5.50;;;;;;;-143.84;48.67;45083.34;5071946;28;20443;-76
2022/09/04 05:51:28;;;;;;;7.13;6.53;;;;;;;-143.84;48.51;45096.66;5071504;28;20521;-76
2022/09/04 05:54:13;;;;;;;9.10;6.10;;;;;;;-143.84;47.73;45075.72;5071153;28;20977;-76
2022/09/04 05:57:01;;;;;;;5.70;5.30;;;;;;;-143.84;47.45;45079.53;5071813;28;20522;-77
2022/09/04 05:59:59;;;;;;;6.40;5.90;;;;;;;-143.84;47.10;45083.34;5071854;28;20436;-77
2022/09/04 06:03:00;;;;;;;6.70;4.90;;;;;;;-143.84;46.26;45060.50;5071111;28;20433;-77
2022/09/04 06:05:40;;;;;;;4.90;4.40;;;;;;;-143.84;45.79;45098.56;5068941;28;20444;-77
2022/09/04 06:08:21;;;;;;;4.83;4.43;;;;;;;-143.84;45.81;45094.78;5072087;28;20998;-77
2022/09/04 06:11:01;;;;;;;4.47;4.17;;;;;;;-143.84;45.55;45083.34;5071508;28;20440;-77
2022/09/04 06:13:57;;;;;;;4.60;3.60;;;;;;;-143.84;43.64;45050.97;5071449;28;20516;-77
2022/09/04 06:16:47;;;;;;;8.20;3.67;;;;;;;-143.84;43.64;45066.22;5054069;28;20448;-77
2022/09/04 06:19:46;;;;;;;7.63;4.70;;;;;;;-143.84;43.16;45052.88;5068974;28;20457;-77
2022/09/04 06:22:41;;;;;;;5.00;3.70;;;;;;;-143.84;41.88;45043.34;5067790;28;20510;-77
2022/09/04 06:25:24;;;;;;;5.73;3.47;;;;;;;-143.84;41.64;45070.00;5070092;28;20487;-77
2022/09/04 06:28:16;;;;;;;10.83;4.07;;;;;;;-143.84;41.20;45060.50;5070189;28;20950;-77
2022/09/04 06:30:51;;;;;;;7.03;4.10;;;;;;;-143.84;41.35;45066.22;5058066;28;20437;-77
2022/09/04 06:33:35;;;;;;;4.43;3.27;;;;;;;-143.84;40.74;45058.59;5070383;28;20436;-76
2022/09/04 06:36:51;;;;;;;6.33;3.90;;;;;;;-143.84;41.36;45041.44;5070295;28;20870;-77
2022/09/04 06:39:40;;;;;;;4.10;3.70;;;;;;;-143.84;40.40;45060.50;5028945;28;20481;-77
2022/09/04 06:42:28;;;;;;;6.07;4.27;;;;;;;-143.84;40.87;45066.22;5028786;28;20857;-77
2022/09/04 06:45:13;;;;;;;6.77;3.70;;;;;;;-143.84;40.57;45050.97;5063487;28;20445;-77
2022/09/04 06:47:53;;;;;;;4.10;3.73;;;;;;;-143.84;40.26;45070.00;5070134;28;20437;-77
2022/09/04 06:50:31;;;;;;;4.37;3.90;;;;;;;-143.84;40.17;45052.88;5070277;28;20437;-77
2022/09/04 06:53:17;;;;;;;3.80;3.33;;;;;;;-143.84;40.63;45056.69;5070918;28;20489;-78
2022/09/04 06:55:54;;;;;;;3.83;3.60;;;;;;;-143.84;40.48;45060.50;5070900;28;20476;-76
2022/09/04 06:58:47;;;;;;;9.67;3.40;;;;;;;-143.84;40.00;45039.53;5069346;28;20433;-69
2022/09/04 07:01:19;;;;;;;4.00;3.60;;;;;;;-143.84;40.26;45045.25;5068665;28;20440;-69
2022/09/04 07:04:04;;;;;;;3.47;3.20;;;;;;;-143.84;40.27;45043.34;5072447;28;20432;-77
2022/09/04 07:06:51;;;;;;;3.30;3.00;;;;;;;-143.84;40.60;45052.88;5077086;28;20433;-76
2022/09/04 07:09:23;;;;;;;4.07;3.53;;;;;;;-143.84;40.08;45039.53;5079910;28;20900;-77
2022/09/04 07:12:20;;;;;;;5.17;3.27;;;;;;;-143.84;40.27;45031.94;5091170;28;21261;-77
2022/09/04 07:15:14;;;;;;;3.77;3.47;;;;;;;-143.84;40.17;45020.50;5074742;28;20476;-76
2022/09/04 07:17:52;;;;;;;3.70;3.40;;;;;;;-143.84;39.79;45016.69;5065607;28;20443;-76
2022/09/04 07:20:25;;;;;;;5.10;3.60;;;;;;;-143.84;39.63;45033.84;5083561;28;20433;-77
2022/09/04 07:23:16;;;;;;;3.63;3.10;;;;;;;-143.84;39.18;45037.66;5087547;28;20451;-77
2022/09/04 07:25:51;;;;;;;4.03;3.73;;;;;;;-143.84;40.09;45028.13;5077810;28;20437;-77
2022/09/04 07:28:36;;;;;;;2.90;2.70;;;;;;;-143.84;39.00;45039.53;5081108;28;20446;-77
2022/09/04 07:31:09;;;;;;;4.20;3.80;;;;;;;-143.84;40.23;45018.59;5081676;28;20452;-77
2022/09/04 07:33:47;;;;;;;6.07;4.23;;;;;;;-143.84;40.00;45049.06;5089974;28;20440;-77
2022/09/04 07:36:18;;;;;;;3.80;3.50;;;;;;;-143.84;39.54;45024.31;5091390;28;20467;-77
2022/09/04 07:38:52;;;;;;;3.23;2.90;;;;;;;-143.84;39.29;45028.13;5094589;28;20453;-77
2022/09/04 07:41:27;;;;;;;3.63;3.43;;;;;;;-143.84;39.60;45010.97;5094014;28;20895;-77
2022/09/04 07:44:03;;;;;;;7.50;3.40;;;;;;;-143.84;39.15;45018.59;5083183;28;20511;-76
2022/09/04 07:46:42;;;;;;;3.43;3.23;;;;;;;-143.84;39.67;45039.53;5073202;28;20502;-76
2022/09/04 07:49:18;;;;;;;4.50;3.30;;;;;;;-143.84;39.60;45005.28;5073512;28;20528;-76
2022/09/04 07:51:54;;;;;;;6.23;3.97;;;;;;;-143.84;39.15;45009.09;5073284;28;20456;-77
2022/09/04 07:54:47;;;;;;;8.47;4.67;;;;;;;-143.84;39.54;45018.59;5075003;28;20920;-77
2022/09/04 07:57:32;;;;;;;3.57;3.37;;;;;;;-143.84;39.00;45026.22;5081620;28;20443;-77
2022/09/04 08:00:07;;;;;;;5.30;3.83;;;;;;;-143.84;39.56;45026.22;5084426;28;20486;-76
2022/09/04 08:03:00;;;;;;;3.87;3.57;;;;;;;-143.84;38.78;44995.75;5074589;28;20483;-69
2022/09/04 08:05:31;;;;;;;4.43;4.07;;;;;;;-143.84;38.35;45005.28;5082717;28;20440;-69
2022/09/04 08:08:31;;;;;;;4.10;3.80;;;;;;;-143.84;38.71;44988.13;5081469;28;21046;-76
2022/09/04 08:11:15;;;;;;;4.73;4.00;;;;;;;-143.84;38.78;44995.75;5083290;28;20493;-75
2022/09/04 08:14:05;;;;;;;4.63;3.77;;;;;;;-143.84;37.53;45016.69;5082603;28;20490;-76
2022/09/04 08:16:41;;;;;;;3.90;3.60;;;;;;;-143.84;37.61;45033.84;5083714;28;20508;-75
2022/09/04 08:19:20;;;;;;;4.60;4.20;;;;;;;-143.84;39.18;45001.47;5087140;28;20425;-68
2022/09/04 08:21:51;;;;;;;4.33;3.93;;;;;;;-143.84;39.33;45026.22;5082284;28;20455;-69
2022/09/04 08:24:48;;;;;;;5.57;4.07;;;;;;;-143.84;39.76;45012.88;5080113;28;21334;-69
2022/09/04 08:27:28;;;;;;;5.40;3.57;;;;;;;-143.84;38.68;45030.03;5081728;28;20953;-77
2022/09/04 08:30:05;;;;;;;4.00;3.70;;;;;;;-143.84;38.44;45003.38;5084665;28;20441;-76
2022/09/04 08:32:53;;;;;;;4.57;4.20;;;;;;;-143.84;39.14;45028.13;5083815;28;20436;-70
2022/09/04 08:35:25;;;;;;;6.93;3.70;;;;;;;-143.84;39.38;45022.41;5080854;28;20469;-70
2022/09/04 08:38:11;;;;;;;4.03;3.77;;;;;;;-143.84;39.06;45024.31;5073618;28;20474;-77
2022/09/04 08:41:31;;;;;;;3.33;3.10;;;;;;;-143.84;38.99;45030.03;5071538;28;20433;-69
2022/09/04 08:44:30;;;;;;;3.70;3.50;;;;;;;-143.84;38.50;45005.28;5071326;28;20974;-69
2022/09/04 08:47:37;;;;;;;4.93;4.40;;;;;;;-143.84;38.18;45012.88;5023287;28;20456;-70
2022/09/04 08:50:28;;;;;;;3.53;3.23;;;;;;;-143.84;39.11;45024.31;5059480;28;20444;-77
2022/09/04 08:53:29;;;;;;;3.77;3.47;;;;;;;-143.84;39.24;45026.22;5079943;28;20472;-75
2022/09/04 08:56:26;;;;;;;4.20;3.90;;;;;;;-143.84;39.72;45031.94;5076022;28;20460;-76
2022/09/04 08:59:34;;;;;;;5.80;3.93;;;;;;;-143.84;39.63;44999.56;5082749;28;20448;-76
2022/09/04 09:02:46;;;;;;;3.80;3.60;;;;;;;-143.84;38.44;45020.50;5076403;28;20501;-76
2022/09/04 09:05:54;;;;;;;4.27;3.87;;;;;;;-143.84;39.30;45022.41;5092458;28;20478;-76
2022/09/04 09:09:15;;;;;;;5.33;4.83;;;;;;;-143.84;39.55;45016.69;5092591;28;20447;-76
2022/09/04 09:12:32;;;;;;;5.00;4.60;;;;;;;-143.84;39.47;45020.50;4985138;28;20891;-76
2022/09/04 09:15:29;;;;;;;5.50;4.83;;;;;;;-143.84;40.64;45033.84;4994228;28;20503;-76
2022/09/04 09:18:16;;;;;;;5.67;5.17;;;;;;;-143.84;41.07;45052.88;5078570;28;20527;-76
2022/09/04 09:20:53;;;;;;;6.43;5.13;;;;;;;-143.84;41.37;45024.31;5078388;28;20514;-78
2022/09/04 09:23:30;;;;;;;4.63;4.33;;;;;;;-143.84;40.95;45014.78;5081718;28;20440;-75
2022/09/04 09:26:19;;;;;;;7.50;5.50;;;;;;;-143.84;40.23;45026.22;5077405;28;20452;-75
2022/09/04 09:29:16;;;;;;;5.00;4.60;;;;;;;-143.84;40.62;45020.50;5073491;28;20831;-76
2022/09/04 09:32:31;;;;;;;5.90;5.40;;;;;;;-143.84;41.50;45001.47;5035372;28;20476;-69
2022/09/04 09:35:40;;;;;;;5.93;5.50;;;;;;;-143.84;39.83;45010.97;5069130;28;20574;-69
2022/09/04 09:38:38;;;;;;;8.20;5.70;;;;;;;-143.84;40.95;45026.22;5071815;28;20474;-69
2022/09/04 09:42:01;;;;;;;5.13;4.83;;;;;;;-143.84;39.86;45009.09;5073725;28;20444;-68
2022/09/04 09:44:51;;;;;;;4.37;4.07;;;;;;;-143.84;38.94;45026.22;5012610;28;20444;-77
2022/09/04 09:48:03;;;;;;;4.67;4.37;;;;;;;-143.84;38.48;45024.31;5013962;28;20586;-77
2022/09/04 09:51:17;;;;;;;9.00;4.43;;;;;;;-143.84;40.46;45033.84;5071238;28;20455;-77
2022/09/04 09:54:31;;;;;;;6.50;4.87;;;;;;;-143.84;39.36;45010.97;5063232;28;20989;-76
2022/09/04 09:57:39;;;;;;;4.90;4.60;;;;;;;-143.84;40.01;45037.66;5063393;28;20545;-68
2022/09/04 10:00:17;;;;;;;13.57;5.33;;;;;;;-143.84;40.17;44997.66;5105537;27;20538;-70
2022/09/04 10:03:26;;;;;;;12.00;5.37;;;;;;;-143.84;39.80;45007.19;5106022;28;20447;-69
2022/09/04 10:06:21;;;;;;;5.70;5.30;;;;;;;-143.84;39.16;45026.22;5106167;28;20496;-69
2022/09/04 10:09:33;;;;;;;5.30;4.60;;;;;;;-143.84;40.49;44995.75;5102936;28;20459;-69
2022/09/04 10:12:40;;;;;;;5.87;5.47;;;;;;;-143.84;41.44;45016.69;5102740;28;20516;-70
2022/09/04 10:15:37;;;;;;;9.43;4.40;;;;;;;-143.84;41.63;45020.50;5047373;28;20456;-69
2022/09/04 10:18:41;;;;;;;5.43;4.93;;;;;;;-143.84;42.94;45012.88;5105018;28;20443;-69
2022/09/04 10:21:51;;;;;;;5.13;4.63;;;;;;;-143.84;42.13;45052.88;5102406;28;20458;-69
2022/09/04 10:24:46;;;;;;;4.60;4.20;;;;;;;-143.84;41.71;45028.13;5104560;28;20529;-69
2022/09/04 10:27:38;;;;;;;6.80;4.40;;;;;;;-143.84;41.08;45022.41;5070429;28;20447;-70
2022/09/04 10:30:07;;;;;;;5.13;3.67;;;;;;;-143.84;41.03;45030.03;5104356;28;20870;-76
2022/09/04 10:33:25;;;;;;;3.73;3.10;;;;;;;-143.84;40.54;45024.31;5105538;28;20940;-76
2022/09/04 10:36:12;;;;;;;9.20;3.60;;;;;;;-143.84;40.54;45022.41;5098777;28;20508;-76
2022/09/04 10:41:43;;;;;;;2.73;2.57;;;;;;;-143.84;39.98;45026.22;5106298;28;20442;-76
2022/09/04 10:44:29;;;;;;;3.37;2.50;;;;;;;-143.84;40.31;45037.66;5107384;28;20469;-77
2022/09/04 10:47:11;;;;;;;2.40;2.20;;;;;;;-143.84;39.64;45049.06;5105278;28;20436;-76
2022/09/04 10:50:11;;;;;;;2.30;2.20;;;;;;;-143.84;39.32;45012.88;5108432;28;20499;-77
2022/09/04 10:53:20;;;;;;;4.27;3.40;;;;;;;-143.84;39.90;45026.22;5118120;28;20475;-77
2022/09/04 10:56:02;;;;;;;2.73;2.53;;;;;;;-143.84;40.14;45020.50;5090437;28;20432;-77
2022/09/04 10:58:43;;;;;;;2.87;2.67;;;;;;;-143.84;40.61;45039.53;5105456;28;20521;-76
2022/09/04 11:01:41;;;;;;;3.33;3.13;;;;;;;-143.84;41.92;45024.31;5105045;28;20481;-69
2022/09/04 11:04:47;;;;;;;4.40;2.07;;;;;;;-143.84;39.91;45020.50;5100340;28;20455;-69
2022/09/04 11:08:02;;;;;;;4.47;2.10;;;;;;;-143.84;41.53;44999.56;5073846;28;20431;-69
2022/09/04 11:10:44;;;;;;;2.53;2.33;;;;;;;-143.84;40.99;45030.03;5037099;28;21185;-69
2022/09/04 11:13:39;;;;;;;1.90;1.80;;;;;;;-143.84;40.78;45014.78;5090817;28;20435;-69
2022/09/04 11:16:23;;;;;;;2.17;1.97;;;;;;;-143.84;40.74;45030.03;5091555;28;20442;-69
2022/09/04 11:19:32;;;;;;;2.43;2.30;;;;;;;-143.84;40.43;45014.78;5091602;28;20572;-69
2022/09/04 11:22:34;;;;;;;3.07;2.37;;;;;;;-143.84;41.28;45018.59;5070444;28;20973;-69
2022/09/04 11:26:04;;;;;;;2.47;2.37;;;;;;;-143.84;39.96;45033.84;5072132;28;20505;-69
2022/09/04 11:29:05;;;;;;;4.57;2.80;;;;;;;-143.84;40.83;45022.41;5091793;28;20451;-69
2022/09/04 11:32:01;;;;;;;2.73;2.53;;;;;;;-143.84;40.60;45003.38;5079994;28;20443;-69
2022/09/04 11:35:02;;;;;;;4.07;2.67;;;;;;;-143.84;40.56;45024.31;5091206;28;20440;-69
2022/09/04 11:37:58;;;;;;;3.73;2.47;;;;;;;-143.84;40.71;45033.84;5091366;28;20529;-69
2022/09/04 11:41:19;;;;;;;5.33;2.40;;;;;;;-143.84;40.34;45033.84;5091131;28;20476;-69
2022/09/04 11:44:15;;;;;;;3.73;2.20;;;;;;;-143.84;40.78;45028.13;5091412;28;20933;-69
2022/09/04 11:47:13;;;;;;;2.50;2.30;;;;;;;-143.84;40.51;45031.94;5091056;28;20554;-69
2022/09/04 11:49:58;;;;;;;2.70;2.43;;;;;;;-143.84;39.61;45022.41;5049733;28;20542;-69
2022/09/04 11:52:50;;;;;;;6.93;2.37;;;;;;;-143.84;39.57;45037.66;5090968;28;20471;-69
2022/09/04 11:55:30;;;;;;;2.33;2.13;;;;;;;-143.84;40.66;45012.88;5090898;28;20827;-69
2022/09/04 11:58:35;;;;;;;2.60;2.40;;;;;;;-143.84;42.31;45010.97;5090640;28;20451;-69
2022/09/04 12:01:19;;;;;;;2.43;2.07;;;;;;;-143.84;40.92;45016.69;5090598;28;20451;-69
2022/09/04 12:04:21;;;;;;;2.50;2.30;;;;;;;-143.84;40.39;45020.50;5090792;28;20452;-69
2022/09/04 12:07:04;;;;;;;3.27;2.40;;;;;;;-143.84;40.24;45018.59;5090655;28;20439;-69
2022/09/04 12:09:54;;;;;;;2.90;2.13;;;;;;;-143.84;39.97;45041.44;5090706;28;20454;-69
2022/09/04 12:12:47;;;;;;;2.40;2.20;;;;;;;-143.84;40.43;45047.16;5090734;28;20501;-69
2022/09/04 12:15:39;;;;;;;6.83;2.20;;;;;;;-143.84;41.45;45012.88;5090431;28;20785;-69
2022/09/04 12:18:58;;;;;;;4.80;2.40;;;;;;;-143.84;40.66;45003.38;5090441;28;20440;-69
2022/09/04 12:21:54;;;;;;;2.20;2.10;;;;;;;-143.84;41.54;45018.59;5089712;28;20988;-69
2022/09/04 12:24:42;;;;;;;5.30;3.03;;;;;;;-143.84;40.66;45022.41;5090409;28;20833;-69
2022/09/04 12:27:41;;;;;;;5.47;2.40;;;;;;;-143.84;40.54;45022.41;5090228;28;20436;-69
2022/09/04 12:30:15;;;;;;;1.97;1.87;;;;;;;-143.84;40.31;45009.09;5049034;28;20531;-69
2022/09/04 12:33:10;;;;;;;1.63;1.53;;;;;;;-143.84;40.76;45005.28;5090095;28;20444;-69
2022/09/04 12:36:03;;;;;;;2.47;2.13;;;;;;;-143.84;42.24;45026.22;5062127;28;20432;-68
2022/09/04 12:39:19;;;;;;;3.33;1.90;;;;;;;-143.84;41.25;45010.97;5090224;28;20435;-68
2022/09/04 12:41:55;;;;;;;1.90;1.80;;;;;;;-143.84;40.17;45022.41;5090066;28;20444;-69
2022/09/04 12:44:36;;;;;;;2.50;2.10;;;;;;;-143.84;40.64;45030.03;5090044;28;20480;-69